Time;durP1;ratioP1;P1;durP2;ratioP2;P2;SDS_P1;SDS_P2;PMS_P1;PMS_P2;Temp;Humidity;BMP_temperature;BMP_pressure;BME280_temperature;BME280_humidity;BME280_pressure;Samples;Min_cycle;Max_cycle;Signal;HPM_P1;HPM_P2
2021/04/04 00:01:39;;;;;;;0.70;0.55;;;;;;;10.62;69.21;71746.97;4992287;28;20096;-84
2021/04/04 00:04:06;;;;;;;0.43;0.35;;;;;;;10.63;68.02;71748.75;4992494;28;20024;-82
2021/04/04 00:06:33;;;;;;;0.70;0.43;;;;;;;9.71;68.17;71642.72;4989836;28;20030;-83
2021/04/04 00:09:00;;;;;;;0.40;0.40;;;;;;;10.43;67.71;71724.91;5005092;28;20026;-82
2021/04/04 00:11:27;;;;;;;0.75;0.50;;;;;;;10.61;68.20;71745.75;4992009;28;20111;-84
2021/04/04 00:13:54;;;;;;;1.20;0.35;;;;;;;10.03;66.67;71679.06;4992501;28;20026;-87
2021/04/04 00:16:21;;;;;;;0.50;0.50;;;;;;;9.65;67.36;71635.59;4994622;28;20533;-86
2021/04/04 00:18:48;;;;;;;0.98;0.52;;;;;;;9.80;67.11;71653.44;5010636;28;20041;-85
2021/04/04 00:21:15;;;;;;;0.30;0.30;;;;;;;9.99;67.02;71675.47;4987698;28;20124;-86
2021/04/04 00:23:42;;;;;;;0.73;0.68;;;;;;;10.67;66.97;71752.91;5010009;28;20077;-85
2021/04/04 00:26:09;;;;;;;5.22;0.40;;;;;;;9.41;66.22;71608.81;4975072;28;20821;-85
2021/04/04 00:28:36;;;;;;;0.93;0.75;;;;;;;10.73;66.10;71759.47;5011172;28;20026;-89
2021/04/04 00:31:03;;;;;;;0.47;0.45;;;;;;;10.94;65.89;71784.50;5010291;28;20506;-88
2021/04/04 00:33:29;;;;;;;1.63;0.65;;;;;;;10.74;66.43;71761.25;4982933;28;20113;-87
2021/04/04 00:35:56;;;;;;;2.67;1.00;;;;;;;10.24;66.09;71704.03;5014953;28;20025;-89
2021/04/04 00:38:23;;;;;;;0.65;0.47;;;;;;;10.15;66.37;71692.75;4998724;28;20029;-89
2021/04/04 00:40:53;;;;;;;1.83;1.05;;;;;;;10.15;66.12;71693.34;4998506;28;20026;-88
2021/04/04 00:43:20;;;;;;;0.45;0.45;;;;;;;9.52;66.46;71620.72;4996216;28;20088;-87
2021/04/04 00:45:47;;;;;;;0.60;0.60;;;;;;;9.78;66.78;71650.47;4998329;28;20551;-86
2021/04/04 00:48:14;;;;;;;1.58;1.02;;;;;;;9.63;66.01;71633.78;4996772;28;20034;-86
2021/04/04 00:50:41;;;;;;;0.57;0.50;;;;;;;10.20;66.05;71698.69;5001916;28;20131;-84
2021/04/04 00:53:09;;;;;;;0.98;0.98;;;;;;;9.78;66.37;71650.47;5013771;28;20140;-84
2021/04/04 00:55:36;;;;;;;1.60;0.60;;;;;;;10.12;65.59;71687.03;5000899;28;20037;-83
2021/04/04 00:58:04;;;;;;;0.50;0.50;;;;;;;10.85;65.69;71770.41;5037688;28;20097;-83
2021/04/04 01:00:33;;;;;;;0.55;0.55;;;;;;;9.76;64.77;71648.69;5001222;28;20026;-84
2021/04/04 01:03:01;;;;;;;1.10;1.00;;;;;;;11.07;64.68;71799.38;5003366;28;20022;-83
2021/04/04 01:05:37;;;;;;;2.17;0.52;;;;;;;10.85;64.95;71771.03;5010600;28;20033;-83
2021/04/04 01:08:05;;;;;;;0.93;0.70;;;;;;;10.33;64.18;71713.59;5014168;28;20026;-83
2021/04/04 01:10:35;;;;;;;0.68;0.68;;;;;;;11.32;63.84;71828.00;4996471;28;20029;-83
2021/04/04 01:13:14;;;;;;;;;;;;;;;11.32;63.15;71828.00;5000696;28;20038;-82
2021/04/04 01:16:02;;;;;;;1.45;1.35;;;;;;;10.26;62.84;71703.09;5015894;28;19925;-82
2021/04/04 01:18:47;;;;;;;1.10;0.73;;;;;;;11.58;62.02;71857.22;5015431;28;20132;-83
2021/04/04 01:21:21;;;;;;;2.05;0.95;;;;;;;11.63;62.22;71861.00;4997401;28;20087;-84
2021/04/04 01:24:04;;;;;;;1.40;1.17;;;;;;;11.67;62.16;71867.94;5001149;28;20391;-84
2021/04/04 01:27:00;;;;;;;3.03;1.02;;;;;;;11.85;61.61;71888.22;5002503;28;20049;-85
2021/04/04 01:29:29;;;;;;;1.00;0.90;;;;;;;11.79;61.25;71881.66;4976165;28;20042;-83
2021/04/04 01:31:56;;;;;;;0.70;0.60;;;;;;;11.46;60.96;71843.47;4994529;28;20030;-83
2021/04/04 01:34:26;;;;;;;2.58;0.82;;;;;;;10.68;61.05;71751.34;4992129;28;20033;-83
2021/04/04 01:36:56;;;;;;;0.93;0.90;;;;;;;11.67;60.60;71867.34;4997928;28;20395;-84
2021/04/04 01:39:26;;;;;;;1.98;1.02;;;;;;;10.88;60.98;71776.75;5012259;28;20029;-84
2021/04/04 01:41:54;;;;;;;;;;;;;;;11.53;62.08;71851.84;4986237;28;20434;-84
2021/04/04 01:44:23;;;;;;;0.70;0.70;;;;;;;10.49;60.60;71732.66;5008622;28;19918;-82
2021/04/04 01:46:54;;;;;;;3.45;1.27;;;;;;;11.48;61.00;71845.88;4994568;28;20057;-82
2021/04/04 01:49:22;;;;;;;1.00;1.00;;;;;;;11.34;60.11;71830.38;4994652;28;20059;-84
2021/04/04 01:51:50;;;;;;;1.02;0.98;;;;;;;12.12;60.38;71919.25;5012540;28;20026;-83
2021/04/04 01:54:19;;;;;;;1.27;0.98;;;;;;;12.37;59.71;71947.88;4991830;28;20142;-87
2021/04/04 01:56:48;;;;;;;1.27;1.10;;;;;;;10.89;59.24;71778.53;4984482;28;20038;-85
2021/04/04 01:59:16;;;;;;;3.20;1.13;;;;;;;11.94;59.42;71898.94;4999734;28;20029;-86
2021/04/04 02:01:48;;;;;;;1.55;1.45;;;;;;;11.80;59.36;71882.84;4994831;28;20122;-83
2021/04/04 02:04:17;;;;;;;2.05;1.10;;;;;;;11.05;58.24;71797.00;4993822;28;20030;-84
2021/04/04 02:06:45;;;;;;;2.15;0.63;;;;;;;12.03;58.57;71909.09;4991744;28;20037;-84
2021/04/04 02:09:16;;;;;;;1.00;1.00;;;;;;;11.48;58.40;71846.47;4992082;28;20105;-84
2021/04/04 02:11:45;;;;;;;1.30;1.17;;;;;;;11.54;58.46;71853.03;4987080;28;20030;-85
2021/04/04 02:14:15;;;;;;;1.15;1.15;;;;;;;12.47;58.63;71959.78;4989941;28;20511;-83
2021/04/04 02:16:47;;;;;;;1.50;1.00;;;;;;;11.88;58.03;71892.38;4990282;28;20034;-86
2021/04/04 02:19:15;;;;;;;2.80;1.02;;;;;;;12.73;57.22;71990.22;4990609;28;20502;-84
2021/04/04 02:21:44;;;;;;;2.38;0.70;;;;;;;12.86;55.78;72001.78;4990812;28;20034;-84
2021/04/04 02:24:13;;;;;;;2.97;1.25;;;;;;;11.98;56.53;71903.09;4985424;28;20033;-87
2021/04/04 02:26:40;;;;;;;1.00;0.90;;;;;;;12.96;55.79;72015.88;4983537;28;20125;-85
2021/04/04 02:29:07;;;;;;;2.45;1.08;;;;;;;12.81;55.48;71998.56;4986912;28;20038;-85
2021/04/04 02:31:39;;;;;;;1.05;0.80;;;;;;;12.64;55.67;71979.47;4990864;28;20029;-90
2021/04/04 02:34:20;;;;;;;1.20;1.10;;;;;;;12.95;55.53;72015.28;4992912;28;20022;-87
2021/04/04 02:36:48;;;;;;;1.35;1.27;;;;;;;13.16;54.73;72035.78;4992468;28;20241;-88
2021/04/04 02:39:31;;;;;;;0.90;0.90;;;;;;;13.37;54.79;72063.03;4995637;28;20113;-88
2021/04/04 02:42:00;;;;;;;0.98;0.95;;;;;;;12.71;54.25;71987.84;4990302;28;20498;-89
2021/04/04 02:44:28;;;;;;;1.13;0.85;;;;;;;13.46;53.97;72073.81;4991295;28;20035;-93
2021/04/04 02:46:59;;;;;;;1.52;1.42;;;;;;;13.13;54.90;72035.56;4993462;28;20030;-91
2021/04/04 02:49:30;;;;;;;;;;;;;;;13.52;54.25;72080.34;4994939;28;20065;-91
2021/04/04 02:52:01;;;;;;;0.93;0.93;;;;;;;12.87;52.83;72005.72;4988467;28;20389;-88
2021/04/04 02:54:32;;;;;;;0.90;0.90;;;;;;;13.99;51.51;72134.09;5008658;28;20046;-92
2021/04/04 02:57:00;;;;;;;2.50;0.95;;;;;;;13.31;51.29;72056.47;4992796;28;20117;-85
2021/04/04 02:59:37;;;;;;;3.00;1.00;;;;;;;12.68;52.60;71984.25;4990214;28;20037;-85
2021/04/04 03:02:06;;;;;;;1.73;1.15;;;;;;;13.27;52.84;72052.28;4982125;28;20038;-85
2021/04/04 03:04:36;;;;;;;1.95;0.80;;;;;;;12.23;51.55;71931.78;4990065;28;20056;-84
2021/04/04 03:07:07;;;;;;;1.60;1.05;;;;;;;13.46;51.88;72073.19;4990667;28;20049;-84
2021/04/04 03:09:38;;;;;;;1.52;1.00;;;;;;;12.47;51.67;71959.22;4984914;28;20026;-88
2021/04/04 03:12:06;;;;;;;0.77;0.77;;;;;;;13.58;51.47;72087.53;4990964;28;20145;-92
2021/04/04 03:14:34;;;;;;;0.95;0.80;;;;;;;12.41;51.28;71953.22;5010045;28;20050;-90
2021/04/04 03:17:02;;;;;;;0.80;0.80;;;;;;;13.02;52.17;72022.44;4999834;28;20022;-90
2021/04/04 03:19:30;;;;;;;1.58;1.48;;;;;;;13.50;52.29;72078.56;5010547;28;20021;-85
2021/04/04 03:21:59;;;;;;;1.38;1.25;;;;;;;13.33;51.77;72052.72;5004462;28;20030;-83
2021/04/04 03:24:27;;;;;;;2.42;1.77;;;;;;;12.43;52.25;71955.63;4998007;28;20395;-88
2021/04/04 03:26:55;;;;;;;0.80;0.80;;;;;;;13.17;51.60;72040.34;4994094;28;20107;-89
2021/04/04 03:29:22;;;;;;;0.88;0.88;;;;;;;13.43;51.20;72067.41;4993588;28;20023;-90
2021/04/04 03:31:50;;;;;;;1.77;1.52;;;;;;;13.26;50.43;72050.50;4992827;28;20045;-85
2021/04/04 03:34:18;;;;;;;3.13;1.00;;;;;;;13.99;51.28;72131.94;4989196;28;20081;-84
2021/04/04 03:36:46;;;;;;;1.13;1.10;;;;;;;14.12;49.61;72149.03;4990232;28;20499;-85
2021/04/04 03:39:14;;;;;;;2.20;1.02;;;;;;;13.30;50.40;72051.91;5005117;28;20027;-86
2021/04/04 03:41:42;;;;;;;1.45;1.08;;;;;;;12.73;51.67;71990.22;4987269;28;20022;-83
2021/04/04 03:44:12;;;;;;;3.30;1.58;;;;;;;12.50;51.33;71962.78;4988422;28;20472;-84
2021/04/04 03:46:42;;;;;;;4.20;1.65;;;;;;;11.71;52.04;71872.13;4992885;28;20031;-92
2021/04/04 03:49:09;;;;;;;2.00;1.38;;;;;;;13.30;51.35;72055.25;4991772;28;20060;-89
2021/04/04 03:51:36;;;;;;;1.98;1.20;;;;;;;13.59;51.62;72088.13;4992652;28;20038;-88
2021/04/04 03:54:04;;;;;;;1.45;1.10;;;;;;;13.80;51.51;72113.19;5000930;28;20050;-89
2021/04/04 03:56:35;;;;;;;1.27;1.17;;;;;;;13.48;51.35;72075.59;5011324;28;20097;-86
2021/04/04 03:59:05;;;;;;;1.38;1.27;;;;;;;12.96;51.64;72016.47;5008891;28;20095;-87
2021/04/04 04:01:35;;;;;;;1.48;1.38;;;;;;;12.81;52.40;71999.19;4984429;28;20382;-86
2021/04/04 04:04:03;;;;;;;1.70;1.27;;;;;;;12.86;50.83;71999.03;4993052;28;20137;-90
2021/04/04 04:06:33;;;;;;;1.88;1.77;;;;;;;13.84;50.33;72114.03;4993259;28;20034;-87
2021/04/04 04:09:04;;;;;;;1.10;1.10;;;;;;;13.64;50.12;72094.69;4996062;28;20356;-84
2021/04/04 04:11:32;;;;;;;1.30;1.20;;;;;;;13.31;49.43;72053.69;5007523;28;20295;-84
2021/04/04 04:14:01;;;;;;;2.92;1.48;;;;;;;14.30;48.81;72170.53;5015035;28;20040;-83
2021/04/04 04:16:29;;;;;;;1.35;1.35;;;;;;;14.16;49.45;72148.28;5015156;28;20026;-84
2021/04/04 04:18:57;;;;;;;1.63;1.50;;;;;;;14.22;50.67;72158.22;5005966;28;20022;-88
2021/04/04 04:21:25;;;;;;;2.80;1.38;;;;;;;14.19;50.25;72158.00;4981516;28;20025;-91
2021/04/04 04:23:52;;;;;;;1.60;1.50;;;;;;;12.64;50.84;71979.47;4980375;28;20392;-88
2021/04/04 04:26:21;;;;;;;2.00;1.52;;;;;;;13.47;51.21;72074.38;4979204;28;20030;-84
2021/04/04 04:28:48;;;;;;;1.33;1.20;;;;;;;14.08;50.93;72144.84;5011247;28;20108;-87
2021/04/04 04:31:22;;;;;;;3.00;1.27;;;;;;;14.00;49.95;72133.13;4999423;28;20080;-83
2021/04/04 04:33:54;;;;;;;6.50;2.50;;;;;;;14.47;49.94;72187.50;5012901;28;20026;-86
2021/04/04 04:36:22;;;;;;;1.80;1.70;;;;;;;14.43;49.10;72182.69;4979944;28;20113;-87
2021/04/04 04:38:54;;;;;;;2.25;1.98;;;;;;;14.95;49.15;72244.63;4999186;28;20022;-92
2021/04/04 04:41:23;;;;;;;3.15;1.35;;;;;;;15.00;48.97;72250.63;5000104;28;20026;-90
2021/04/04 04:44:12;;;;;;;4.18;1.02;;;;;;;14.72;49.01;72218.94;4998485;28;20160;-87
2021/04/04 04:46:39;;;;;;;2.17;1.60;;;;;;;13.91;49.25;72125.16;4998215;28;20034;-91
2021/04/04 04:49:09;;;;;;;1.48;1.38;;;;;;;13.38;49.17;72061.47;4997237;28;20026;-82
2021/04/04 04:51:37;;;;;;;1.50;1.40;;;;;;;13.64;48.93;72094.69;5028781;28;20080;-85
2021/04/04 04:54:06;;;;;;;1.70;1.60;;;;;;;14.54;48.39;72195.25;5010018;28;20152;-86
2021/04/04 04:56:37;;;;;;;1.83;1.73;;;;;;;13.64;48.71;72091.31;5013325;28;20037;-85
2021/04/04 04:59:06;;;;;;;2.78;1.98;;;;;;;14.71;48.94;72214.97;4997264;28;20080;-85
2021/04/04 05:01:47;;;;;;;2.38;2.03;;;;;;;14.25;48.71;72161.78;4996460;28;20414;-84
2021/04/04 05:04:14;;;;;;;3.55;2.03;;;;;;;14.50;48.98;72190.47;4986471;28;20040;-84
2021/04/04 05:06:45;;;;;;;3.30;2.13;;;;;;;14.81;48.45;72226.34;4995175;28;20065;-84
2021/04/04 05:09:13;;;;;;;4.22;3.28;;;;;;;14.36;49.26;72172.19;5010665;28;20608;-85
2021/04/04 05:11:45;;;;;;;2.83;2.63;;;;;;;14.39;48.84;72180.09;4984536;28;20029;-84
2021/04/04 05:14:12;;;;;;;2.83;2.22;;;;;;;13.86;48.46;72116.41;4995341;28;20033;-84
2021/04/04 05:16:40;;;;;;;6.45;2.67;;;;;;;14.50;49.21;72188.28;4995946;28;20033;-85
2021/04/04 05:19:09;;;;;;;2.75;2.50;;;;;;;14.12;49.72;72149.63;5013746;28;20037;-85
2021/04/04 05:21:38;;;;;;;4.32;3.45;;;;;;;14.50;49.54;72191.06;5001493;28;20065;-85
2021/04/04 05:24:10;;;;;;;5.80;3.03;;;;;;;13.69;50.16;72100.06;4976822;28;20034;-85
2021/04/04 05:26:42;;;;;;;3.60;2.90;;;;;;;14.35;49.29;72176.50;4980695;28;20492;-86
2021/04/04 05:29:11;;;;;;;4.03;3.15;;;;;;;14.34;49.18;72175.31;4976702;28;20060;-85
2021/04/04 05:31:53;;;;;;;5.25;3.00;;;;;;;13.75;50.56;72103.88;4993620;28;20196;-84
2021/04/04 05:34:22;;;;;;;5.15;3.15;;;;;;;13.60;49.32;72086.56;4994510;28;20530;-84
2021/04/04 05:37:03;;;;;;;3.00;2.70;;;;;;;14.26;50.31;72159.63;4979979;28;20113;-86
2021/04/04 05:39:33;;;;;;;3.42;2.53;;;;;;;13.22;50.42;72043.56;5001416;28;20125;-85
2021/04/04 05:42:02;;;;;;;3.22;2.33;;;;;;;14.25;49.92;72163.97;5007586;28;20090;-85
2021/04/04 05:44:35;;;;;;;3.87;3.03;;;;;;;14.31;49.76;72171.13;5007913;28;20038;-84
2021/04/04 05:47:13;;;;;;;2.83;2.63;;;;;;;14.28;50.06;72168.16;5013579;28;20285;-84
2021/04/04 05:49:59;;;;;;;2.78;2.58;;;;;;;14.57;49.50;72201.00;5013000;28;20038;-84
2021/04/04 05:52:37;;;;;;;4.45;3.10;;;;;;;14.59;49.17;72204.00;4975840;28;20081;-84
2021/04/04 05:55:13;;;;;;;4.25;2.92;;;;;;;13.66;49.06;72096.47;4975281;28;20049;-85
2021/04/04 05:57:59;;;;;;;3.30;2.55;;;;;;;14.18;49.63;72156.19;4991977;28;20092;-85
2021/04/04 06:00:34;;;;;;;3.17;2.88;;;;;;;14.04;48.19;72140.66;4993178;28;20114;-84
2021/04/04 06:03:13;;;;;;;7.00;3.33;;;;;;;14.96;47.95;72243.66;4976039;28;20088;-84
2021/04/04 06:05:52;;;;;;;4.18;2.83;;;;;;;15.04;46.73;72252.63;4978097;28;20121;-84
2021/04/04 06:08:41;;;;;;;9.23;3.20;;;;;;;14.95;46.94;72244.63;5000303;28;20427;-83
2021/04/04 06:11:23;;;;;;;3.00;2.70;;;;;;;14.80;47.72;72227.31;5007368;28;20029;-85
2021/04/04 06:14:08;;;;;;;2.78;2.33;;;;;;;15.03;47.34;72254.19;5018785;28;20053;-84
2021/04/04 06:16:53;;;;;;;2.80;2.60;;;;;;;15.03;45.66;72251.44;4995413;28;20176;-84
2021/04/04 06:19:23;;;;;;;4.30;2.65;;;;;;;14.79;46.90;72226.72;4994821;28;20034;-84
2021/04/04 06:22:44;;;;;;;5.93;2.80;;;;;;;14.76;46.45;72223.72;5011596;28;20101;-84
2021/04/04 06:25:34;;;;;;;5.05;2.85;;;;;;;14.63;46.31;72208.75;4932308;29;20039;-84
2021/04/04 06:28:16;;;;;;;6.47;3.53;;;;;;;15.29;43.86;72281.31;4973043;28;20108;-83
2021/04/04 06:31:22;;;;;;;6.85;2.97;;;;;;;14.91;44.37;72237.69;4992014;28;20028;-86
2021/04/04 06:34:07;;;;;;;6.90;3.55;;;;;;;14.84;44.90;72232.69;4991446;28;20038;-85
2021/04/04 06:36:37;;;;;;;4.15;3.05;;;;;;;14.95;44.49;72245.25;4993690;28;20026;-85
2021/04/04 06:39:28;;;;;;;5.28;3.30;;;;;;;15.13;43.61;72260.63;4992227;28;20057;-83
2021/04/04 06:42:07;;;;;;;3.72;2.88;;;;;;;13.45;44.12;72069.84;4984138;28;20041;-85
2021/04/04 06:44:46;;;;;;;6.35;3.30;;;;;;;14.39;45.13;72180.69;4993955;28;20034;-84
2021/04/04 06:47:28;;;;;;;5.07;2.70;;;;;;;15.09;43.88;72258.59;4995121;28;20509;-84
2021/04/04 06:50:10;;;;;;;6.10;3.30;;;;;;;15.15;44.78;72265.78;4994632;28;20033;-84
2021/04/04 06:53:04;;;;;;;6.28;2.85;;;;;;;13.94;43.28;72128.72;4994328;28;20085;-85
2021/04/04 06:55:43;;;;;;;8.68;2.80;;;;;;;13.90;43.56;72124.53;4993578;28;20507;-84
2021/04/04 06:58:34;;;;;;;7.70;3.20;;;;;;;14.90;43.97;72237.09;4994525;28;20028;-84
2021/04/04 07:01:35;;;;;;;6.68;3.75;;;;;;;14.95;43.49;72244.63;4994616;28;20285;-85
2021/04/04 07:04:08;;;;;;;9.13;3.28;;;;;;;14.63;43.13;72202.66;4994899;28;20036;-85
2021/04/04 07:07:12;;;;;;;5.50;2.83;;;;;;;14.35;43.28;72173.16;4994314;28;20030;-85
2021/04/04 07:10:04;;;;;;;6.50;3.25;;;;;;;14.93;43.16;72239.47;4994945;28;20040;-83
2021/04/04 07:12:45;;;;;;;6.47;3.05;;;;;;;14.19;41.95;72157.38;5013074;28;20022;-84
2021/04/04 07:15:20;;;;;;;4.15;2.97;;;;;;;14.65;42.24;72207.78;4995013;28;20506;-85
2021/04/04 07:18:21;;;;;;;4.97;2.53;;;;;;;15.10;41.52;72262.56;5019494;28;21496;-85
2021/04/04 07:21:15;;;;;;;8.52;2.67;;;;;;;14.45;41.33;72184.50;5003350;28;20033;-85
2021/04/04 07:24:19;;;;;;;5.85;3.30;;;;;;;14.67;40.96;72209.59;5007200;28;20034;-84
2021/04/04 07:26:49;;;;;;;4.53;2.90;;;;;;;14.96;41.83;72243.09;4989321;28;20123;-86
2021/04/04 07:29:46;;;;;;;6.90;3.17;;;;;;;14.90;42.84;72233.72;4987361;28;20037;-85
2021/04/04 07:32:25;;;;;;;5.57;2.85;;;;;;;14.58;42.74;72200.03;4976515;28;20042;-85
2021/04/04 07:34:59;;;;;;;5.43;3.10;;;;;;;14.12;43.08;72149.03;4992864;28;20121;-85
2021/04/04 07:37:41;;;;;;;4.85;2.85;;;;;;;14.99;42.16;72243.88;4992715;28;20484;-85
2021/04/04 07:40:30;;;;;;;8.60;3.55;;;;;;;15.03;42.09;72248.66;4999229;28;20026;-84
2021/04/04 07:43:11;;;;;;;7.25;3.38;;;;;;;14.84;42.23;72229.31;4994054;28;20025;-85
2021/04/04 07:45:44;;;;;;;6.13;2.80;;;;;;;14.45;42.96;72181.72;5014918;28;20034;-85
2021/04/04 07:48:22;;;;;;;6.90;3.33;;;;;;;14.77;42.82;72219.41;5031643;28;20018;-85
2021/04/04 07:51:12;;;;;;;8.50;3.63;;;;;;;14.16;42.90;72151.03;5012868;28;20034;-85
2021/04/04 07:54:03;;;;;;;8.25;3.80;;;;;;;14.66;42.68;72206.22;5018597;28;20050;-84
2021/04/04 07:56:43;;;;;;;8.95;4.07;;;;;;;14.67;42.72;72207.41;4994487;28;20519;-85
2021/04/04 07:59:13;;;;;;;5.47;3.37;;;;;;;14.73;42.75;72216.75;5020321;28;20026;-84
2021/04/04 08:02:09;;;;;;;5.13;2.92;;;;;;;14.43;43.46;72182.13;5011808;28;20268;-85
2021/04/04 08:04:44;;;;;;;12.77;4.95;;;;;;;14.58;43.01;72202.81;5017573;28;20092;-85
2021/04/04 08:07:29;;;;;;;6.78;3.33;;;;;;;14.43;43.86;72179.34;4996553;28;20022;-84
2021/04/04 08:10:11;;;;;;;5.03;3.63;;;;;;;13.26;44.51;72051.09;4995912;28;20026;-83
2021/04/04 08:12:57;;;;;;;3.50;3.13;;;;;;;14.15;44.84;72149.84;4992735;28;20391;-84
2021/04/04 08:15:53;;;;;;;7.78;2.85;;;;;;;14.17;45.26;72152.84;4993950;28;20052;-84
2021/04/04 08:18:28;;;;;;;10.95;3.53;;;;;;;14.09;45.63;72143.28;4995151;28;20064;-84
2021/04/04 08:21:01;;;;;;;6.35;4.93;;;;;;;12.95;45.12;72015.28;4993391;28;20026;-84
2021/04/04 08:23:41;;;;;;;3.83;3.47;;;;;;;13.37;45.19;72057.50;4974738;28;20058;-86
2021/04/04 08:26:08;;;;;;;;;;;;;;;14.13;45.81;72147.47;4999149;28;20030;-84
2021/04/04 08:29:06;;;;;;;10.80;4.75;;;;;;;13.90;45.14;72119.00;4993083;28;19917;-86
2021/04/04 08:31:46;;;;;;;14.25;5.20;;;;;;;13.62;45.60;72089.53;4993069;28;20395;-85
2021/04/04 08:34:13;;;;;;;;;;;;;;;14.36;44.98;72177.09;4993945;28;20045;-86
2021/04/04 08:37:04;;;;;;;12.15;4.35;;;;;;;13.89;44.80;72117.22;4993307;28;20000;-85
2021/04/04 08:39:34;;;;;;;5.35;3.58;;;;;;;14.50;43.97;72187.69;5010772;28;20068;-85
2021/04/04 08:42:02;;;;;;;;;;;;;;;14.63;45.84;72203.22;4989915;28;20455;-85
2021/04/04 08:44:40;;;;;;;4.55;3.45;;;;;;;13.60;54.45;72083.81;4992955;28;20302;-85
2021/04/04 08:47:21;;;;;;;6.90;3.45;;;;;;;11.54;57.95;71846.94;4995401;28;20053;-86
2021/04/04 08:49:50;;;;;;;5.75;3.05;;;;;;;11.82;57.27;71881.88;5011482;28;20178;-85
2021/04/04 08:52:32;;;;;;;5.80;3.15;;;;;;;12.44;57.24;71956.22;4992696;28;20041;-84
2021/04/04 08:54:59;;;;;;;5.10;2.83;;;;;;;11.60;59.02;71857.44;5013785;28;20033;-84
2021/04/04 08:57:47;;;;;;;5.57;3.50;;;;;;;12.33;60.09;71940.94;5014177;28;20030;-84
2021/04/04 09:00:15;;;;;;;5.97;3.20;;;;;;;12.22;60.21;71930.56;4978758;28;20033;-84
2021/04/04 09:02:49;;;;;;;8.10;3.80;;;;;;;12.42;59.74;71951.66;4978544;28;20029;-85
2021/04/04 09:05:20;;;;;;;4.97;3.85;;;;;;;12.35;60.56;71943.31;4978187;28;20034;-85
2021/04/04 09:07:48;;;;;;;5.07;2.92;;;;;;;11.85;59.96;71888.81;4985354;28;20032;-84
2021/04/04 09:10:17;;;;;;;4.30;3.35;;;;;;;12.21;59.82;71929.38;5012950;28;20030;-86
2021/04/04 09:12:45;;;;;;;6.40;3.75;;;;;;;12.08;59.61;71912.31;5014493;28;20045;-85
2021/04/04 09:15:13;;;;;;;5.35;4.40;;;;;;;10.98;59.91;71788.66;4979323;28;20030;-85
2021/04/04 09:17:51;;;;;;;3.38;3.08;;;;;;;11.85;60.88;71888.22;4998106;28;20097;-84
2021/04/04 09:20:30;;;;;;;5.85;3.15;;;;;;;11.20;61.26;71811.53;4978784;28;20085;-84
2021/04/04 09:22:57;;;;;;;8.05;4.05;;;;;;;11.36;60.69;71829.44;4994764;28;20032;-84
2021/04/04 09:25:26;;;;;;;3.40;3.00;;;;;;;11.36;60.25;71832.75;4976724;28;20103;-86
2021/04/04 09:27:57;;;;;;;6.18;3.75;;;;;;;11.52;60.00;71847.88;4992846;28;20038;-85
2021/04/04 09:30:34;;;;;;;6.95;3.60;;;;;;;11.73;60.77;71874.50;4976888;28;20031;-84
2021/04/04 09:33:05;;;;;;;5.65;3.20;;;;;;;11.28;60.96;71823.22;4997916;28;20048;-90
2021/04/04 09:35:32;;;;;;;8.82;3.75;;;;;;;10.90;61.24;71779.75;4998317;28;20030;-89
2021/04/04 09:38:07;;;;;;;7.63;3.35;;;;;;;11.28;61.79;71822.66;5016856;28;20022;-87
2021/04/04 09:40:36;;;;;;;9.38;4.07;;;;;;;11.39;61.79;71835.13;4999127;28;20041;-91
2021/04/04 09:43:16;;;;;;;6.07;3.60;;;;;;;11.38;62.21;71833.94;5016108;28;20022;-88
2021/04/04 09:45:44;;;;;;;4.70;3.45;;;;;;;10.90;62.50;71779.13;5004128;28;20037;-88
2021/04/04 09:48:25;;;;;;;7.50;4.13;;;;;;;11.28;62.38;71823.22;5015990;28;20033;-95
2021/04/04 09:51:16;;;;;;;8.50;3.90;;;;;;;11.36;62.39;71832.75;5027492;28;20010;-94
2021/04/04 09:53:55;;;;;;;9.75;4.10;;;;;;;11.00;62.55;71787.72;5011478;28;20022;-93
2021/04/04 09:56:31;;;;;;;8.63;4.37;;;;;;;11.49;62.66;71844.91;5017051;28;20510;-90
2021/04/04 09:58:59;;;;;;;12.68;5.28;;;;;;;10.97;63.30;71787.47;4999997;28;20152;-84
2021/04/04 10:01:28;;;;;;;6.03;3.65;;;;;;;11.20;63.60;71808.19;5014299;28;20029;-92
2021/04/04 10:04:01;;;;;;;9.07;4.05;;;;;;;11.42;63.48;71833.22;5000413;28;20026;-90
2021/04/04 10:06:33;;;;;;;8.80;5.43;;;;;;;11.11;62.37;71803.56;5013076;28;20037;-90
2021/04/04 10:09:13;;;;;;;12.32;5.88;;;;;;;10.94;61.95;71781.75;5005865;28;20125;-90
2021/04/04 10:11:41;;;;;;;11.35;5.55;;;;;;;11.49;62.46;71847.66;5011606;28;20450;-89
2021/04/04 10:14:17;;;;;;;16.33;5.75;;;;;;;11.08;62.93;71800.00;4998067;28;20034;-90
2021/04/04 10:16:44;;;;;;;16.20;9.18;;;;;;;11.25;63.13;71816.31;5001694;28;20083;-84
2021/04/04 10:19:12;;;;;;;9.85;5.30;;;;;;;11.46;62.37;71844.09;4995039;28;20032;-82
2021/04/04 10:21:41;;;;;;;12.23;5.70;;;;;;;11.35;63.42;71831.56;5013548;28;20549;-85
2021/04/04 10:24:33;;;;;;;8.77;4.03;;;;;;;11.40;63.43;71833.59;5029732;28;20248;-86
2021/04/04 10:27:24;;;;;;;16.60;6.30;;;;;;;11.42;62.98;71839.31;5026232;28;20026;-85
2021/04/04 10:30:19;;;;;;;6.88;4.88;;;;;;;11.28;64.00;71823.22;5012646;28;20099;-85
2021/04/04 10:32:48;;;;;;;10.32;4.88;;;;;;;10.32;63.96;71712.38;5006257;28;20029;-85
2021/04/04 10:35:45;;;;;;;7.53;5.13;;;;;;;11.24;64.15;71815.72;5011689;28;20086;-85
2021/04/04 10:38:23;;;;;;;13.25;6.75;;;;;;;10.44;64.43;71726.72;4977506;28;20141;-85
2021/04/04 10:40:57;;;;;;;10.23;6.30;;;;;;;11.14;65.04;71807.16;4993551;28;20026;-85
2021/04/04 10:43:40;;;;;;;10.75;6.10;;;;;;;11.30;64.18;71822.28;4968349;28;20042;-85
2021/04/04 10:46:11;;;;;;;13.07;6.03;;;;;;;10.83;63.53;71765.91;4994871;28;20518;-86
2021/04/04 10:48:49;;;;;;;21.25;7.75;;;;;;;11.45;63.73;71836.78;5012509;28;20369;-86
2021/04/04 10:51:18;;;;;;;13.73;6.10;;;;;;;10.67;64.28;71752.91;5009828;28;20747;-85
2021/04/04 10:53:46;;;;;;;13.20;6.78;;;;;;;11.38;64.22;71834.56;5001690;28;20473;-85
2021/04/04 10:56:17;;;;;;;13.52;7.15;;;;;;;10.73;63.64;71756.72;4994781;28;20498;-87
2021/04/04 10:58:45;;;;;;;16.77;6.30;;;;;;;11.43;64.03;71835.03;4994841;28;20038;-90
2021/04/04 11:01:14;;;;;;;11.63;6.18;;;;;;;9.79;64.53;71651.66;5011383;28;20062;-85
2021/04/04 11:03:45;;;;;;;11.90;6.05;;;;;;;10.82;64.70;71770.78;4993602;28;20135;-85
2021/04/04 11:06:13;;;;;;;13.95;7.03;;;;;;;10.77;65.00;71764.81;4987891;28;20038;-85
2021/04/04 11:08:41;;;;;;;14.55;6.20;;;;;;;10.65;64.85;71750.53;4994230;28;20441;-83
2021/04/04 11:11:09;;;;;;;9.70;6.10;;;;;;;10.67;64.98;71753.53;4997818;28;20129;-84
2021/04/04 11:13:39;;;;;;;12.05;6.10;;;;;;;10.80;65.84;71768.41;4993578;28;20061;-85
2021/04/04 11:16:09;;;;;;;7.82;6.25;;;;;;;10.69;65.43;71752.53;4993152;28;20037;-84
2021/04/04 11:18:50;;;;;;;9.10;5.82;;;;;;;11.11;65.38;71802.97;5000359;28;20064;-84
2021/04/04 11:21:22;;;;;;;9.50;6.18;;;;;;;10.74;65.59;71758.50;4997319;28;20033;-85
2021/04/04 11:23:49;;;;;;;11.10;7.22;;;;;;;11.23;64.91;71817.25;4990321;28;20036;-85
2021/04/04 11:26:34;;;;;;;8.38;6.18;;;;;;;11.41;65.05;71835.38;4993060;28;20049;-85
2021/04/04 11:29:12;;;;;;;18.38;6.85;;;;;;;11.34;65.11;71827.63;5009356;28;20041;-85
2021/04/04 11:31:52;;;;;;;11.63;5.88;;;;;;;11.24;65.36;71818.47;5009248;28;20037;-85
2021/04/04 11:34:34;;;;;;;11.57;5.65;;;;;;;11.63;65.64;71861.00;4992218;28;20502;-85
2021/04/04 11:37:06;;;;;;;8.68;6.15;;;;;;;11.61;65.55;71858.63;4992257;28;20034;-84
2021/04/04 11:39:33;;;;;;;17.52;8.27;;;;;;;11.04;65.15;71795.81;4995044;28;20026;-84
2021/04/04 11:42:06;;;;;;;19.05;7.72;;;;;;;10.93;64.65;71782.69;4992634;28;20033;-84
2021/04/04 11:44:41;;;;;;;19.27;8.88;;;;;;;11.49;65.00;71847.06;5009038;28;20728;-84
2021/04/04 11:47:17;;;;;;;16.38;6.70;;;;;;;11.61;64.63;71858.03;4992210;28;20042;-84
2021/04/04 11:49:49;;;;;;;16.45;8.05;;;;;;;11.67;65.07;71867.34;4995728;28;20026;-84
2021/04/04 11:52:19;;;;;;;17.50;8.13;;;;;;;11.74;64.84;71872.94;4988729;28;20057;-85
2021/04/04 11:54:46;;;;;;;14.40;7.45;;;;;;;11.75;64.84;71876.88;4975887;28;20566;-85
2021/04/04 11:57:17;;;;;;;12.05;8.60;;;;;;;11.23;65.67;71815.13;4972086;28;20046;-86
2021/04/04 11:59:44;;;;;;;16.88;8.50;;;;;;;11.76;65.39;71872.56;4971423;28;20116;-84
2021/04/04 12:02:13;;;;;;;14.35;9.25;;;;;;;11.22;65.66;71810.56;4990093;28;20109;-86
2021/04/04 12:04:47;;;;;;;14.45;8.23;;;;;;;11.15;65.09;71807.72;4976366;28;20037;-86
2021/04/04 12:07:18;;;;;;;20.58;10.65;;;;;;;11.80;64.54;71882.25;4981718;28;20084;-85